createdAt,value
2023-05-21T00:00:36.528Z,991.55
2023-05-21T00:01:36.528Z,991.51
2023-05-21T00:02:36.591Z,991.53
2023-05-21T00:03:36.716Z,991.54
2023-05-21T00:04:36.549Z,991.55
2023-05-21T00:05:36.746Z,991.62
2023-05-21T00:06:36.621Z,991.47
2023-05-21T00:07:36.530Z,991.50
2023-05-21T00:08:36.581Z,991.43
2023-05-21T00:09:36.546Z,991.46
2023-05-21T00:10:36.528Z,991.46
2023-05-21T00:11:36.541Z,991.47
2023-05-21T00:12:36.545Z,991.45
2023-05-21T00:13:36.553Z,991.45
2023-05-21T00:14:36.553Z,991.49
2023-05-21T00:15:36.798Z,991.48
2023-05-21T00:16:36.630Z,991.44
2023-05-21T00:17:36.606Z,991.43
2023-05-21T00:18:36.542Z,991.41
2023-05-21T00:19:36.552Z,991.42
2023-05-21T00:20:36.544Z,991.42
2023-05-21T00:21:36.653Z,991.41
2023-05-21T00:22:36.579Z,991.35
2023-05-21T00:23:36.559Z,991.47
2023-05-21T00:24:36.547Z,991.39
2023-05-21T00:25:36.718Z,991.35
2023-05-21T00:26:36.558Z,991.33
2023-05-21T00:27:36.594Z,991.35
2023-05-21T00:28:36.549Z,991.34
2023-05-21T00:29:54.167Z,991.35
2023-05-21T00:30:54.073Z,991.36
2023-05-21T00:31:54.121Z,991.34
2023-05-21T00:32:54.240Z,991.27
2023-05-21T00:33:54.072Z,991.28
2023-05-21T00:34:54.088Z,991.29
2023-05-21T00:35:54.082Z,991.33
2023-05-21T00:36:54.083Z,991.25
2023-05-21T00:37:54.119Z,991.25
2023-05-21T00:38:54.095Z,991.29
2023-05-21T00:39:54.908Z,991.22
2023-05-21T00:40:54.099Z,991.29
2023-05-21T00:41:54.101Z,991.23
2023-05-21T00:42:54.103Z,991.24
2023-05-21T00:43:54.110Z,991.24
2023-05-21T00:44:54.118Z,991.24
2023-05-21T00:45:54.126Z,991.18
2023-05-21T00:46:54.107Z,991.18
2023-05-21T00:47:54.142Z,991.25
2023-05-21T00:48:54.149Z,991.26
2023-05-21T00:49:54.140Z,991.21
2023-05-21T00:50:54.120Z,991.20
2023-05-21T00:51:54.107Z,991.12
2023-05-21T00:52:54.110Z,991.17
2023-05-21T00:53:54.134Z,991.17
2023-05-21T00:54:54.117Z,991.18
2023-05-21T00:55:54.116Z,991.20
2023-05-21T00:56:54.126Z,991.18
2023-05-21T00:57:54.148Z,991.20
2023-05-21T00:58:54.130Z,991.14
2023-05-21T00:59:54.131Z,991.11
2023-05-21T01:00:54.146Z,991.09
2023-05-21T01:01:54.145Z,991.13
2023-05-21T01:02:54.238Z,991.06
2023-05-21T01:03:54.148Z,991.06
2023-05-21T01:04:54.167Z,991.14
2023-05-21T01:05:54.130Z,991.08
2023-05-21T01:06:54.162Z,991.02
2023-05-21T01:07:54.149Z,991.02
2023-05-21T01:08:54.140Z,991.09
2023-05-21T01:09:54.296Z,991.02
2023-05-21T01:10:54.300Z,991.04
2023-05-21T01:11:54.324Z,990.94
2023-05-21T01:12:54.302Z,990.99
2023-05-21T01:13:54.354Z,990.87
2023-05-21T01:14:54.349Z,990.97
2023-05-21T01:15:54.343Z,990.92
2023-05-21T01:16:54.379Z,990.97
2023-05-21T01:17:54.416Z,991.03
2023-05-21T01:18:54.457Z,991.00
2023-05-21T01:19:54.459Z,990.96
2023-05-21T01:20:54.395Z,991.03
2023-05-21T01:21:54.394Z,990.98
2023-05-21T01:22:54.446Z,991.01
2023-05-21T01:23:54.495Z,990.97
2023-05-21T01:24:54.453Z,990.97
2023-05-21T01:25:54.450Z,991.00
2023-05-21T01:26:54.498Z,990.94
2023-05-21T01:27:54.483Z,990.99
2023-05-21T01:28:54.497Z,990.99
2023-05-21T01:29:54.559Z,990.93
2023-05-21T01:30:54.544Z,990.96
2023-05-21T01:31:54.546Z,991.01
2023-05-21T01:32:54.622Z,990.98
2023-05-21T01:33:54.624Z,990.95
2023-05-21T01:34:54.603Z,990.97
2023-05-21T01:35:54.579Z,990.94
2023-05-21T01:36:54.616Z,990.92
2023-05-21T01:37:54.606Z,990.93
2023-05-21T01:38:54.637Z,990.89
2023-05-21T01:39:54.659Z,990.85
2023-05-21T01:40:54.661Z,990.83
2023-05-21T01:41:54.692Z,990.89
2023-05-21T01:42:54.697Z,990.87
2023-05-21T01:43:54.720Z,990.87
2023-05-21T01:44:54.705Z,990.80
2023-05-21T01:45:54.792Z,990.86
2023-05-21T01:46:54.774Z,990.83
2023-05-21T01:47:54.781Z,990.88
2023-05-21T01:48:54.777Z,990.84
2023-05-21T01:49:54.792Z,990.84
2023-05-21T01:50:54.823Z,990.87
2023-05-21T01:51:54.794Z,990.88
2023-05-21T01:52:54.812Z,990.90
2023-05-21T01:53:54.796Z,990.87
2023-05-21T01:54:54.818Z,990.91
2023-05-21T01:55:54.861Z,990.89
2023-05-21T01:56:54.860Z,990.88
2023-05-21T01:57:54.876Z,990.91
2023-05-21T01:58:54.879Z,990.85
2023-05-21T01:59:54.923Z,990.82
2023-05-21T02:00:54.918Z,990.78
2023-05-21T02:01:54.931Z,990.86
2023-05-21T02:02:55.004Z,990.84
2023-05-21T02:03:55.116Z,990.78
2023-05-21T02:04:54.960Z,990.76
2023-05-21T02:05:54.973Z,990.82
2023-05-21T02:06:54.985Z,990.85
2023-05-21T02:07:55.033Z,990.77
2023-05-21T02:08:55.013Z,990.85
2023-05-21T02:09:55.021Z,990.80
2023-05-21T02:10:55.105Z,990.85
2023-05-21T02:11:55.020Z,990.80
2023-05-21T02:12:55.056Z,990.78
2023-05-21T02:13:55.071Z,990.76
2023-05-21T02:14:55.072Z,990.84
2023-05-21T02:15:55.416Z,990.84
2023-05-21T02:16:55.120Z,990.85
2023-05-21T02:17:55.152Z,990.82
2023-05-21T02:18:55.176Z,990.81
2023-05-21T02:19:55.131Z,990.79
2023-05-21T02:20:55.156Z,990.76
2023-05-21T02:21:55.158Z,990.79
2023-05-21T02:22:55.176Z,990.78
2023-05-21T02:23:55.196Z,990.82
2023-05-21T02:24:55.220Z,990.76
2023-05-21T02:25:55.250Z,990.72
2023-05-21T02:26:55.237Z,990.80
2023-05-21T02:27:55.246Z,990.77
2023-05-21T02:28:55.259Z,990.77
2023-05-21T02:29:55.272Z,990.80
2023-05-21T02:30:55.283Z,990.80
2023-05-21T02:31:55.289Z,990.77
2023-05-21T02:32:55.363Z,990.79
2023-05-21T02:33:55.340Z,990.77
2023-05-21T02:34:55.333Z,990.76
2023-05-21T02:35:55.345Z,990.73
2023-05-21T02:36:55.362Z,990.79
2023-05-21T02:37:55.350Z,990.74
2023-05-21T02:38:55.377Z,990.74
2023-05-21T02:39:55.396Z,990.74
2023-05-21T02:40:55.403Z,990.70
2023-05-21T02:41:55.416Z,990.72
2023-05-21T02:42:55.452Z,990.69
2023-05-21T02:43:55.436Z,990.73
2023-05-21T02:44:55.483Z,990.71
2023-05-21T02:45:55.517Z,990.69
2023-05-21T02:46:55.476Z,990.71
2023-05-21T02:47:55.526Z,990.75
2023-05-21T02:48:55.501Z,990.69
2023-05-21T02:49:55.509Z,990.72
2023-05-21T02:50:55.508Z,990.64
2023-05-21T02:51:55.535Z,990.68
2023-05-21T02:52:55.550Z,990.73
2023-05-21T02:53:55.571Z,990.68
2023-05-21T02:54:55.583Z,990.67
2023-05-21T02:55:55.577Z,990.75
2023-05-21T02:56:55.594Z,990.65
2023-05-21T02:57:55.598Z,990.66
2023-05-21T02:58:55.602Z,990.69
2023-05-21T02:59:55.612Z,990.67
2023-05-21T03:00:55.661Z,990.57
2023-05-21T03:01:55.640Z,990.69
2023-05-21T03:02:55.751Z,990.67
2023-05-21T03:03:55.677Z,990.66
2023-05-21T03:04:55.662Z,990.63
2023-05-21T03:05:55.712Z,990.62
2023-05-21T03:06:55.728Z,990.60
2023-05-21T03:07:55.744Z,990.63
2023-05-21T03:08:55.730Z,990.60
2023-05-21T03:09:55.759Z,990.62
2023-05-21T03:10:55.747Z,990.65
2023-05-21T03:11:55.806Z,990.61
2023-05-21T03:12:55.788Z,990.60
2023-05-21T03:13:55.792Z,990.66
2023-05-21T03:14:55.796Z,990.63
2023-05-21T03:15:55.797Z,990.69
2023-05-21T03:16:55.897Z,990.60
2023-05-21T03:17:55.931Z,990.60
2023-05-21T03:18:55.863Z,990.59
2023-05-21T03:19:55.873Z,990.69
2023-05-21T03:20:55.895Z,990.64
2023-05-21T03:21:55.907Z,990.54
2023-05-21T03:22:55.939Z,990.60
2023-05-21T03:23:55.964Z,990.60
2023-05-21T03:24:55.930Z,990.65
2023-05-21T03:25:55.944Z,990.53
2023-05-21T03:26:55.975Z,990.57
2023-05-21T03:27:55.963Z,990.65
2023-05-21T03:28:55.976Z,990.58
2023-05-21T03:29:56.023Z,990.54
2023-05-21T03:30:56.015Z,990.65
2023-05-21T03:31:56.056Z,990.67
2023-05-21T03:32:56.039Z,990.67
2023-05-21T03:33:56.042Z,990.57
2023-05-21T03:34:56.032Z,990.62
2023-05-21T03:35:56.068Z,990.60
2023-05-21T03:36:56.106Z,990.55
2023-05-21T03:37:56.095Z,990.65
2023-05-21T03:38:56.098Z,990.61
2023-05-21T03:39:56.134Z,990.62
2023-05-21T03:40:56.113Z,990.67
2023-05-21T03:41:56.165Z,990.61
2023-05-21T03:42:56.161Z,990.62
2023-05-21T03:43:56.173Z,990.65
2023-05-21T03:44:56.180Z,990.67
2023-05-21T03:45:56.248Z,990.64
2023-05-21T03:46:56.216Z,990.60
2023-05-21T03:47:56.284Z,990.58
2023-05-21T03:48:56.215Z,990.61
2023-05-21T03:49:56.226Z,990.61
2023-05-21T03:50:56.258Z,990.56
2023-05-21T03:51:56.306Z,990.50
2023-05-21T03:52:56.278Z,990.54
2023-05-21T03:53:56.258Z,990.55
2023-05-21T03:54:56.315Z,990.53
2023-05-21T03:55:56.296Z,990.52
2023-05-21T03:56:56.345Z,990.55
2023-05-21T03:57:56.344Z,990.53
2023-05-21T03:58:56.357Z,990.55
2023-05-21T03:59:56.360Z,990.65
2023-05-21T04:00:56.376Z,990.55
2023-05-21T04:01:56.393Z,990.58
2023-05-21T04:02:56.466Z,990.55
2023-05-21T04:03:56.552Z,990.58
2023-05-21T04:04:56.485Z,990.55
2023-05-21T04:05:56.440Z,990.53
2023-05-21T04:06:56.450Z,990.55
2023-05-21T04:07:56.470Z,990.56
2023-05-21T04:08:56.460Z,990.60
2023-05-21T04:09:56.474Z,990.56
2023-05-21T04:10:56.519Z,990.56
2023-05-21T04:11:56.520Z,990.55
2023-05-21T04:12:56.516Z,990.58
2023-05-21T04:13:56.533Z,990.52
2023-05-21T04:14:56.550Z,990.57
2023-05-21T04:15:56.580Z,990.54
2023-05-21T04:16:56.570Z,990.60
2023-05-21T04:17:56.626Z,990.51
2023-05-21T04:18:57.458Z,990.57
2023-05-21T04:19:56.601Z,990.60
2023-05-21T04:20:56.620Z,990.60
2023-05-21T04:21:56.655Z,990.59
2023-05-21T04:22:56.666Z,990.56
2023-05-21T04:23:56.657Z,990.58
2023-05-21T04:24:56.670Z,990.55
2023-05-21T04:25:56.674Z,990.59
2023-05-21T04:26:56.672Z,990.59
2023-05-21T04:27:56.723Z,990.62
2023-05-21T04:28:56.742Z,990.55
2023-05-21T04:29:56.776Z,990.66
2023-05-21T04:30:56.804Z,990.68
2023-05-21T04:31:56.761Z,990.63
2023-05-21T04:32:56.813Z,990.60
2023-05-21T04:33:56.777Z,990.61
2023-05-21T04:34:56.850Z,990.65
2023-05-21T04:35:56.804Z,990.67
2023-05-21T04:36:56.964Z,990.67
2023-05-21T04:37:56.853Z,990.64
2023-05-21T04:38:56.862Z,990.68
2023-05-21T04:39:56.859Z,990.66
2023-05-21T04:40:56.869Z,990.72
2023-05-21T04:41:56.886Z,990.71
2023-05-21T04:42:56.892Z,990.77
2023-05-21T04:43:56.903Z,990.80
2023-05-21T04:44:56.912Z,990.77
2023-05-21T04:45:56.895Z,990.74
2023-05-21T04:46:56.970Z,990.76
2023-05-21T04:47:57.002Z,990.75
2023-05-21T04:48:56.979Z,990.78
2023-05-21T04:49:56.971Z,990.75
2023-05-21T04:50:56.984Z,990.75
2023-05-21T04:51:56.981Z,990.80
2023-05-21T04:52:57.016Z,990.75
2023-05-21T04:53:57.033Z,990.76
2023-05-21T04:54:57.038Z,990.83
2023-05-21T04:55:57.023Z,990.75
2023-05-21T04:56:57.058Z,990.73
2023-05-21T04:57:57.072Z,990.83
2023-05-21T04:58:57.083Z,990.79
2023-05-21T04:59:57.106Z,990.78
2023-05-21T05:00:57.131Z,990.78
2023-05-21T05:01:57.106Z,990.78
2023-05-21T05:02:57.192Z,990.79
2023-05-21T05:03:57.288Z,990.81
2023-05-21T05:04:57.159Z,990.76
2023-05-21T05:05:57.158Z,990.76
2023-05-21T05:06:57.161Z,990.78
2023-05-21T05:07:57.188Z,990.69
2023-05-21T05:08:57.237Z,990.78
2023-05-21T05:09:57.246Z,990.68
2023-05-21T05:10:57.222Z,990.71
2023-05-21T05:11:57.271Z,990.77
2023-05-21T05:12:57.256Z,990.67
2023-05-21T05:13:57.301Z,990.67
2023-05-21T05:14:57.302Z,990.71
2023-05-21T05:15:57.301Z,990.70
2023-05-21T05:16:57.355Z,990.74
2023-05-21T05:17:57.335Z,990.71
2023-05-21T05:18:57.393Z,990.72
2023-05-21T05:19:57.337Z,990.71
2023-05-21T05:20:57.421Z,990.75
2023-05-21T05:21:57.363Z,990.75
2023-05-21T05:22:57.371Z,990.68
2023-05-21T05:23:57.362Z,990.75
2023-05-21T05:24:57.392Z,990.74
2023-05-21T05:25:57.423Z,990.72
2023-05-21T05:26:57.432Z,990.78
2023-05-21T05:27:57.436Z,990.70
2023-05-21T05:28:57.436Z,990.69
2023-05-21T05:29:57.453Z,990.74
2023-05-21T05:30:57.501Z,990.79
2023-05-21T05:31:57.492Z,990.71
2023-05-21T05:32:57.547Z,990.72
2023-05-21T05:33:57.513Z,990.71
2023-05-21T05:34:57.516Z,990.72
2023-05-21T05:35:57.547Z,990.72
2023-05-21T05:36:57.574Z,990.76
2023-05-21T05:37:57.613Z,990.78
2023-05-21T05:38:57.560Z,990.73
2023-05-21T05:39:57.575Z,990.67
2023-05-21T05:40:57.587Z,990.70
2023-05-21T05:41:57.608Z,990.72
2023-05-21T05:42:57.615Z,990.76
2023-05-21T05:43:57.686Z,990.77
2023-05-21T05:44:57.651Z,990.73
2023-05-21T05:45:57.707Z,990.75
2023-05-21T05:46:57.653Z,990.65
2023-05-21T05:47:57.735Z,990.70
2023-05-21T05:48:57.697Z,990.62
2023-05-21T05:49:57.692Z,990.67
2023-05-21T05:50:57.702Z,990.66
2023-05-21T05:51:57.719Z,990.67
2023-05-21T05:52:57.745Z,990.72
2023-05-21T05:53:57.761Z,990.68
2023-05-21T05:54:57.766Z,990.68
2023-05-21T05:55:57.769Z,990.76
2023-05-21T05:56:57.782Z,990.70
2023-05-21T05:57:57.803Z,990.73
2023-05-21T05:58:57.802Z,990.64
2023-05-21T05:59:57.824Z,990.73
2023-05-21T06:00:57.910Z,990.70
2023-05-21T06:01:57.854Z,990.60
2023-05-21T06:02:57.925Z,990.66
2023-05-21T06:03:58.003Z,990.64
2023-05-21T06:04:57.883Z,990.67
2023-05-21T06:05:58.569Z,990.62
2023-05-21T06:06:57.916Z,990.60
2023-05-21T06:07:57.918Z,990.70
2023-05-21T06:08:57.952Z,990.69
2023-05-21T06:09:57.944Z,990.66
2023-05-21T06:10:57.993Z,990.68
2023-05-21T06:11:57.982Z,990.68
2023-05-21T06:12:57.995Z,990.71
2023-05-21T06:13:58.019Z,990.70
2023-05-21T06:14:58.016Z,990.72
2023-05-21T06:15:58.055Z,990.69
2023-05-21T06:16:58.081Z,990.75
2023-05-21T06:17:58.115Z,990.70
2023-05-21T06:18:58.447Z,990.68
2023-05-21T06:19:58.151Z,990.73
2023-05-21T06:20:58.171Z,990.72
2023-05-21T06:21:58.118Z,990.78
2023-05-21T06:22:58.112Z,990.75
2023-05-21T06:23:58.407Z,990.71
2023-05-21T06:24:58.178Z,990.76
2023-05-21T06:25:58.219Z,990.72
2023-05-21T06:26:58.204Z,990.75
2023-05-21T06:27:58.160Z,990.79
2023-05-21T06:28:58.173Z,990.79
2023-05-21T06:29:58.393Z,990.71
2023-05-21T06:30:58.460Z,990.66
2023-05-21T06:31:58.274Z,990.69
2023-05-21T06:32:58.410Z,990.72
2023-05-21T06:33:58.375Z,990.73
2023-05-21T06:34:58.289Z,990.71
2023-05-21T06:35:58.453Z,990.74
2023-05-21T06:36:58.408Z,990.66
2023-05-21T06:37:58.318Z,990.69
2023-05-21T06:38:58.295Z,990.72
2023-05-21T06:39:58.388Z,990.66
2023-05-21T06:40:58.362Z,990.68
2023-05-21T06:41:58.418Z,990.63
2023-05-21T06:42:58.359Z,990.64
2023-05-21T06:43:58.376Z,990.67
2023-05-21T06:44:58.675Z,990.66
2023-05-21T06:45:58.455Z,990.70
2023-05-21T06:46:58.440Z,990.70
2023-05-21T06:47:58.444Z,990.68
2023-05-21T06:48:58.449Z,990.71
2023-05-21T06:49:58.531Z,990.67
2023-05-21T06:50:58.477Z,990.63
2023-05-21T06:51:58.459Z,990.70
2023-05-21T06:52:58.532Z,990.62
2023-05-21T06:53:58.477Z,990.68
2023-05-21T06:54:58.569Z,990.64
2023-05-21T06:55:58.548Z,990.63
2023-05-21T06:56:58.623Z,990.58
2023-05-21T06:57:58.566Z,990.61
2023-05-21T06:58:58.541Z,990.59
2023-05-21T06:59:58.563Z,990.54
2023-05-21T07:00:58.634Z,990.55
2023-05-21T07:01:58.699Z,990.57
2023-05-21T07:02:58.838Z,990.67
2023-05-21T07:03:58.616Z,990.62
2023-05-21T07:04:58.638Z,990.65
2023-05-21T07:05:58.638Z,990.62
2023-05-21T07:06:58.671Z,990.65
2023-05-21T07:07:58.660Z,990.60
2023-05-21T07:08:58.681Z,990.58
2023-05-21T07:10:58.724Z,990.55
2023-05-21T07:11:58.663Z,990.57
2023-05-21T07:12:58.686Z,990.61
2023-05-21T07:13:58.894Z,990.58
2023-05-21T07:14:59.342Z,990.59
2023-05-21T07:15:58.698Z,990.48
2023-05-21T07:16:58.918Z,990.53
2023-05-21T07:17:58.744Z,990.57
2023-05-21T07:18:58.809Z,990.57
2023-05-21T07:19:58.719Z,990.57
2023-05-21T07:20:58.717Z,990.56
2023-05-21T07:21:58.723Z,990.61
2023-05-21T07:22:58.691Z,990.62
2023-05-21T07:23:58.763Z,990.60
2023-05-21T07:24:58.709Z,990.58
2023-05-21T07:25:58.744Z,990.61
2023-05-21T07:26:58.807Z,990.55
2023-05-21T07:27:58.695Z,990.55
2023-05-21T07:28:58.769Z,990.60
2023-05-21T07:29:58.772Z,990.56
2023-05-21T07:30:58.754Z,990.53
2023-05-21T07:31:58.753Z,990.51
2023-05-21T07:32:58.858Z,990.48
2023-05-21T07:33:58.754Z,990.51
2023-05-21T07:34:58.727Z,990.53
2023-05-21T07:35:58.759Z,990.54
2023-05-21T07:36:58.738Z,990.46
2023-05-21T07:37:58.798Z,990.51
2023-05-21T07:38:58.750Z,990.46
2023-05-21T07:39:58.744Z,990.50
2023-05-21T07:40:58.758Z,990.45
2023-05-21T07:41:58.757Z,990.40
2023-05-21T07:42:58.744Z,990.46
2023-05-21T07:43:58.746Z,990.46
2023-05-21T07:44:58.772Z,990.48
2023-05-21T07:45:58.772Z,990.48
2023-05-21T07:46:58.729Z,990.49
2023-05-21T07:47:58.757Z,990.48
2023-05-21T07:48:58.746Z,990.46
2023-05-21T07:49:58.787Z,990.39
2023-05-21T07:50:58.764Z,990.43
2023-05-21T07:51:58.741Z,990.38
2023-05-21T07:52:58.802Z,990.37
2023-05-21T07:53:58.768Z,990.36
2023-05-21T07:54:58.759Z,990.41
2023-05-21T07:55:58.799Z,990.35
2023-05-21T07:56:58.749Z,990.33
2023-05-21T07:57:58.826Z,990.27
2023-05-21T07:58:58.788Z,990.29
2023-05-21T07:59:58.789Z,990.31
2023-05-21T08:00:58.809Z,990.32
2023-05-21T08:01:58.815Z,990.33
2023-05-21T08:02:58.958Z,990.37
2023-05-21T08:03:59.055Z,990.33
2023-05-21T08:04:58.950Z,990.34
2023-05-21T08:05:58.892Z,990.29
2023-05-21T08:06:58.911Z,990.37
2023-05-21T08:07:58.780Z,990.28
2023-05-21T08:08:58.795Z,990.21
2023-05-21T08:09:58.806Z,990.25
2023-05-21T08:10:58.786Z,990.27
2023-05-21T08:11:58.860Z,990.34
2023-05-21T08:12:59.002Z,990.25
2023-05-21T08:13:58.776Z,990.23
2023-05-21T08:14:58.897Z,990.27
2023-05-21T08:15:58.845Z,990.26
2023-05-21T08:16:58.769Z,990.26
2023-05-21T08:17:58.860Z,990.25
2023-05-21T08:18:58.910Z,990.27
2023-05-21T08:19:59.721Z,990.29
2023-05-21T08:20:59.286Z,990.29
2023-05-21T08:21:58.825Z,990.21
2023-05-21T08:22:58.794Z,990.27
2023-05-21T08:23:58.798Z,990.24
2023-05-21T08:24:58.906Z,990.27
2023-05-21T08:25:58.792Z,990.25
2023-05-21T08:26:58.826Z,990.22
2023-05-21T08:27:58.949Z,990.19
2023-05-21T08:28:58.817Z,990.22
2023-05-21T08:29:59.357Z,990.27
2023-05-21T08:30:59.039Z,990.24
2023-05-21T08:31:58.874Z,990.26
2023-05-21T08:32:59.550Z,990.22
2023-05-21T08:33:58.963Z,990.24
2023-05-21T08:34:58.823Z,990.24
2023-05-21T08:35:58.965Z,990.31
2023-05-21T08:36:58.959Z,990.28
2023-05-21T08:37:58.940Z,990.25
2023-05-21T08:38:58.892Z,990.20
2023-05-21T08:39:58.836Z,990.26
2023-05-21T08:40:59.419Z,990.27
2023-05-21T08:41:59.313Z,990.31
2023-05-21T08:42:58.895Z,990.29
2023-05-21T08:43:58.869Z,990.27
2023-05-21T08:44:58.867Z,990.25
2023-05-21T08:45:59.008Z,990.35
2023-05-21T08:46:58.828Z,990.24
2023-05-21T08:47:58.923Z,990.23
2023-05-21T08:48:58.887Z,990.25
2023-05-21T08:49:58.909Z,990.27
2023-05-21T08:50:58.881Z,990.22
2023-05-21T08:51:58.865Z,990.20
2023-05-21T08:52:58.874Z,990.23
2023-05-21T08:53:58.903Z,990.20
2023-05-21T08:54:58.889Z,990.24
2023-05-21T08:55:58.854Z,990.23
2023-05-21T08:56:58.923Z,990.23
2023-05-21T08:57:58.935Z,990.16
2023-05-21T08:58:58.849Z,990.21
2023-05-21T08:59:58.850Z,990.11
2023-05-21T09:00:58.887Z,990.12
2023-05-21T09:02:03.514Z,990.07
2023-05-21T09:02:59.025Z,989.99
2023-05-21T09:04:04.987Z,989.99
2023-05-21T09:04:58.944Z,990.08
2023-05-21T09:05:58.851Z,990.10
2023-05-21T09:06:58.854Z,990.00
2023-05-21T09:07:58.930Z,990.00
2023-05-21T09:08:58.857Z,990.06
2023-05-21T09:09:58.886Z,990.05
2023-05-21T09:11:37.078Z,990.15
2023-05-21T09:12:37.059Z,990.07
2023-05-21T09:13:38.811Z,990.11
2023-05-21T09:14:37.050Z,990.20
2023-05-21T09:15:37.265Z,990.26
2023-05-21T09:16:37.217Z,990.11
2023-05-21T09:17:37.138Z,990.14
2023-05-21T09:18:37.069Z,990.11
2023-05-21T09:19:37.155Z,990.10
2023-05-21T09:20:37.074Z,990.01
2023-05-21T09:21:37.087Z,990.06
2023-05-21T09:22:37.092Z,990.05
2023-05-21T09:23:37.086Z,990.06
2023-05-21T09:24:37.110Z,990.00
2023-05-21T09:25:37.268Z,990.07
2023-05-21T09:26:37.104Z,990.04
2023-05-21T09:27:37.076Z,990.07
2023-05-21T09:28:37.101Z,990.09
2023-05-21T09:29:37.091Z,990.08
2023-05-21T09:30:37.242Z,989.98
2023-05-21T09:31:37.145Z,990.04
2023-05-21T09:32:37.097Z,990.05
2023-05-21T09:33:37.141Z,989.99
2023-05-21T09:34:37.136Z,989.97
2023-05-21T09:35:38.181Z,989.98
2023-05-21T09:36:37.124Z,990.08
2023-05-21T09:37:37.059Z,990.06
2023-05-21T09:38:37.082Z,990.02
2023-05-21T09:39:37.121Z,990.03
2023-05-21T09:40:37.217Z,990.02
2023-05-21T09:41:37.151Z,990.03
2023-05-21T09:42:37.123Z,990.00
2023-05-21T09:43:37.122Z,989.95
2023-05-21T09:44:37.109Z,990.02
2023-05-21T09:45:37.301Z,990.01
2023-05-21T09:46:37.176Z,989.97
2023-05-21T09:47:37.250Z,989.99
2023-05-21T09:48:37.246Z,989.96
2023-05-21T09:49:37.267Z,989.99
2023-05-21T09:50:37.479Z,990.03
2023-05-21T09:51:37.341Z,990.08
2023-05-21T09:52:37.291Z,990.00
2023-05-21T09:53:37.484Z,989.98
2023-05-21T09:54:37.352Z,990.08
2023-05-21T09:55:37.355Z,990.01
2023-05-21T09:56:37.357Z,990.04
2023-05-21T09:57:37.381Z,990.07
2023-05-21T09:58:37.383Z,990.03
2023-05-21T09:59:37.420Z,989.93
2023-05-21T10:00:37.543Z,990.03
2023-05-21T10:01:37.512Z,989.92
2023-05-21T10:02:37.455Z,989.98
2023-05-21T10:03:37.609Z,989.89
2023-05-21T10:04:37.516Z,989.96
2023-05-21T10:05:37.472Z,989.94
2023-05-21T10:06:37.489Z,989.88
2023-05-21T10:07:37.509Z,989.88
2023-05-21T10:08:37.525Z,989.87
2023-05-21T10:09:37.514Z,989.91
2023-05-21T10:10:37.740Z,989.89
2023-05-21T10:11:37.614Z,989.84
2023-05-21T10:12:37.562Z,989.87
2023-05-21T10:13:37.574Z,989.82
2023-05-21T10:14:37.579Z,989.83
2023-05-21T10:15:37.610Z,989.83
2023-05-21T10:16:37.901Z,989.88
2023-05-21T10:17:37.681Z,989.81
2023-05-21T10:18:37.626Z,989.90
2023-05-21T10:19:37.661Z,989.87
2023-05-21T10:20:38.059Z,989.84
2023-05-21T10:21:37.649Z,989.84
2023-05-21T10:22:37.696Z,989.85
2023-05-21T10:23:37.716Z,989.77
2023-05-21T10:24:37.695Z,989.76
2023-05-21T10:25:37.722Z,989.74
2023-05-21T10:26:37.743Z,989.75
2023-05-21T10:27:37.742Z,989.81
2023-05-21T10:28:37.782Z,989.78
2023-05-21T10:29:37.802Z,989.75
2023-05-21T10:30:38.128Z,989.72
2023-05-21T10:31:37.803Z,989.78
2023-05-21T10:32:37.949Z,989.72
2023-05-21T10:33:37.893Z,989.72
2023-05-21T10:34:37.847Z,989.70
2023-05-21T10:35:38.074Z,989.70
2023-05-21T10:36:37.839Z,989.66
2023-05-21T10:37:37.857Z,989.70
2023-05-21T10:38:37.903Z,989.70
2023-05-21T10:39:37.874Z,989.71
2023-05-21T10:40:38.097Z,989.77
2023-05-21T10:41:37.919Z,989.68
2023-05-21T10:42:37.937Z,989.71
2023-05-21T10:43:37.962Z,989.74
2023-05-21T10:44:37.970Z,989.74
2023-05-21T10:45:38.060Z,989.75
2023-05-21T10:46:37.965Z,989.82
2023-05-21T10:47:38.065Z,989.79
2023-05-21T10:48:38.017Z,989.74
2023-05-21T10:49:38.015Z,989.80
2023-05-21T10:50:38.201Z,989.81
2023-05-21T10:51:38.051Z,989.81
2023-05-21T10:52:38.119Z,989.82
2023-05-21T10:53:38.244Z,989.77
2023-05-21T10:54:38.951Z,989.74
2023-05-21T10:55:38.273Z,989.80
2023-05-21T10:56:38.206Z,989.78
2023-05-21T10:57:38.147Z,989.73
2023-05-21T10:58:39.659Z,989.66
2023-05-21T10:59:38.138Z,989.70
2023-05-21T11:00:38.652Z,989.66
2023-05-21T11:01:38.193Z,989.56
2023-05-21T11:02:38.292Z,989.63
2023-05-21T11:03:38.404Z,989.64
2023-05-21T11:04:38.274Z,989.59
2023-05-21T11:05:38.308Z,989.58
2023-05-21T11:06:38.245Z,989.62
2023-05-21T11:07:38.265Z,989.63
2023-05-21T11:08:38.320Z,989.59
2023-05-21T11:09:38.377Z,989.57
2023-05-21T11:10:38.735Z,989.53
2023-05-21T11:11:38.551Z,989.62
2023-05-21T11:12:38.325Z,989.51
2023-05-21T11:13:38.487Z,989.56
2023-05-21T11:14:38.338Z,989.52
2023-05-21T11:15:38.362Z,989.42
2023-05-21T11:16:38.438Z,989.53
2023-05-21T11:17:38.664Z,989.47
2023-05-21T11:18:38.475Z,989.48
2023-05-21T11:19:38.841Z,989.48
2023-05-21T11:20:38.618Z,989.43
2023-05-21T11:21:38.554Z,989.42
2023-05-21T11:22:38.706Z,989.45
2023-05-21T11:23:38.449Z,989.50
2023-05-21T11:24:38.456Z,989.38
2023-05-21T11:25:38.473Z,989.42
2023-05-21T11:26:38.505Z,989.35
2023-05-21T11:27:38.523Z,989.37
2023-05-21T11:28:38.549Z,989.35
2023-05-21T11:29:38.528Z,989.35
2023-05-21T11:30:40.887Z,989.39
2023-05-21T11:31:39.051Z,989.26
2023-05-21T11:32:38.684Z,989.22
2023-05-21T11:33:38.650Z,989.36
2023-05-21T11:34:38.651Z,989.32
2023-05-21T11:35:38.696Z,989.30
2023-05-21T11:36:38.686Z,989.25
2023-05-21T11:37:38.687Z,989.30
2023-05-21T11:38:38.732Z,989.25
2023-05-21T11:39:38.735Z,989.21
2023-05-21T11:40:38.813Z,989.15
2023-05-21T11:41:38.729Z,989.20
2023-05-21T11:42:38.783Z,989.22
2023-05-21T11:43:38.774Z,989.21
2023-05-21T11:44:38.833Z,989.20
2023-05-21T11:45:38.821Z,989.28
2023-05-21T11:46:38.886Z,989.29
2023-05-21T11:47:38.875Z,989.22
2023-05-21T11:48:38.827Z,989.19
2023-05-21T11:49:38.853Z,989.16
2023-05-21T11:50:39.124Z,989.17
2023-05-21T11:51:38.876Z,989.18
2023-05-21T11:52:38.865Z,989.24
2023-05-21T11:53:38.908Z,989.19
2023-05-21T11:54:38.869Z,989.16
2023-05-21T11:55:38.960Z,989.18
2023-05-21T11:56:38.932Z,989.06
2023-05-21T11:57:38.942Z,989.07
2023-05-21T11:58:38.976Z,989.15
2023-05-21T11:59:38.960Z,989.12
2023-05-21T12:00:39.085Z,989.09
2023-05-21T12:01:38.997Z,989.11
2023-05-21T12:02:39.095Z,989.07
2023-05-21T12:03:39.090Z,989.07
2023-05-21T12:04:39.024Z,989.10
2023-05-21T12:05:39.124Z,989.07
2023-05-21T12:06:39.052Z,989.14
2023-05-21T12:07:39.098Z,989.14
2023-05-21T12:08:39.076Z,989.13
2023-05-21T12:09:39.163Z,989.11
2023-05-21T12:10:39.121Z,989.06
2023-05-21T12:11:39.136Z,989.11
2023-05-21T12:12:50.611Z,989.06
2023-05-21T12:13:39.113Z,989.08
2023-05-21T12:14:39.131Z,989.11
2023-05-21T12:15:39.137Z,989.08
2023-05-21T12:16:39.178Z,989.10
2023-05-21T12:17:39.170Z,989.07
2023-05-21T12:18:39.154Z,988.96
2023-05-21T12:19:39.196Z,989.07
2023-05-21T12:20:39.245Z,989.14
2023-05-21T12:21:39.148Z,989.03
2023-05-21T12:22:39.173Z,989.06
2023-05-21T12:23:39.164Z,989.03
2023-05-21T12:24:39.152Z,989.06
2023-05-21T12:25:39.126Z,989.13
2023-05-21T12:26:39.208Z,989.06
2023-05-21T12:27:39.145Z,989.16
2023-05-21T12:28:39.180Z,989.14
2023-05-21T12:29:39.179Z,989.13
2023-05-21T12:30:39.231Z,989.11